Island Scout — WDC6588 — position and weather

sailwx.info

Track history (hours):
 
Tides and Currents Weather Stations Pressure Air Temp Water Temp Dewpoint Dewpoint Depression Visibility Wind Speed Wind Dir Waves Ship Positions

Island Scout

Owner: Island Tug and Barge, Seattle, WA. More information available from US FCC via Universal Licensing System and Coast Guard Vessel Documentation Center.

Last reported at 2017-Dec-16 16:51 UTC. Time now 2017-Dec-18 06:49 UTC.
Position N 47°34' W 122°22'.

Type: Tug. MMSI: 367058210.

Date/timePositionNaut miles runAvg speedWind from/ knotsBaromVisibWave heightAir tempDewpointWater temp
2017-Dec-16 16:51N 47°34' W 122°22'0 0.0
2017-Dec-16 16:30N 47°34' W 122°22'0 0.0
2017-Dec-16 16:00N 47°34' W 122°22'0 0.0
2017-Dec-16 15:30N 47°34' W 122°22'0 0.0
2017-Dec-16 15:00N 47°34' W 122°22'0 0.0
2017-Dec-16 14:30N 47°34' W 122°22'0 0.0
2017-Dec-16 13:59N 47°34' W 122°22'0 0.0
2017-Dec-16 13:29N 47°34' W 122°22'0 0.0
2017-Dec-16 13:00N 47°34' W 122°22'0 0.0
2017-Dec-16 12:30N 47°34' W 122°22'0 0.0
2017-Dec-16 12:00N 47°34' W 122°22'0 0.0
2017-Dec-16 11:30N 47°34' W 122°22'0 0.0
2017-Dec-16 11:00N 47°34' W 122°22'0 0.0
2017-Dec-16 10:30N 47°34' W 122°22'0 0.0
2017-Dec-16 10:00N 47°34' W 122°22'0 0.0
2017-Dec-16 09:30N 47°34' W 122°22'0 0.0
2017-Dec-16 09:00N 47°34' W 122°22'0 0.0
2017-Dec-16 08:30N 47°34' W 122°22'0 0.0
2017-Dec-16 08:00N 47°34' W 122°22'0 0.0
2017-Dec-16 07:30N 47°34' W 122°22'0 0.0
2017-Dec-16 07:00N 47°34' W 122°22'0 0.0
2017-Dec-16 06:30N 47°34' W 122°22'0 0.0
2017-Dec-16 06:00N 47°34' W 122°22'0 0.0
2017-Dec-16 05:30N 47°34' W 122°22'0 0.0
2017-Dec-16 05:00N 47°34' W 122°22'0 0.0
2017-Dec-16 04:30N 47°34' W 122°22'0 0.0
2017-Dec-16 04:00N 47°34' W 122°22'0 0.0
2017-Dec-16 03:30N 47°34' W 122°22'0 0.0
2017-Dec-16 03:00N 47°34' W 122°22'0 0.0
2017-Dec-16 02:30N 47°34' W 122°22'0 0.0
2017-Dec-16 02:00N 47°34' W 122°22'0 0.0
2017-Dec-16 01:30N 47°34' W 122°22'0 0.0
2017-Dec-16 01:00N 47°34' W 122°22'0 0.1
2017-Dec-16 00:30N 47°34' W 122°22'0 0.1
2017-Dec-16 00:00N 47°35' W 122°22'1 2.4
2017-Dec-15 23:30N 47°36' W 122°22'0 0.7
2017-Dec-15 23:00N 47°36' W 122°23'1 1.9
2017-Dec-15 22:30N 47°36' W 122°24'2 3.8
2017-Dec-15 22:00N 47°35' W 122°26'3 5.8
2017-Dec-15 21:30N 47°32' W 122°28'3 6.5
2017-Dec-15 21:00N 47°29' W 122°30'3 7.0
2017-Dec-15 20:30N 47°26' W 122°31'3 5.9
2017-Dec-15 20:00N 47°23' W 122°32'2 4.8
2017-Dec-15 19:30N 47°21' W 122°33'2 4.2
2017-Dec-15 19:00N 47°19' W 122°33'2 3.8
2017-Dec-15 18:30N 47°17' W 122°33'2 4.7
2017-Dec-15 18:00N 47°15' W 122°34'3 5.5
2017-Dec-15 17:30N 47°12' W 122°36'3 5.3
2017-Dec-15 17:00N 47°10' W 122°38'3 5.4
2017-Dec-15 16:30N 47°08' W 122°40'7 5.1
2017-Dec-15 15:09N 47°11' W 122°49'3 6.9
2017-Dec-15 14:47N 47°10' W 122°52'1 4.0
2017-Dec-15 14:29N 47°10' W 122°54'2 3.1
2017-Dec-15 14:00N 47°11' W 122°56'1 2.7
2017-Dec-15 13:30N 47°12' W 122°56'0 0.6
2017-Dec-15 13:00N 47°12' W 122°56'1 1.6
2017-Dec-15 12:30N 47°12' W 122°56'0 0.7
2017-Dec-15 12:00N 47°11' W 122°56'2 3.4
2017-Dec-15 11:28N 47°10' W 122°54'0 1.0
2017-Dec-15 11:00N 47°10' W 122°54'0 0.3
2017-Dec-15 10:29N 47°10' W 122°54'3 4.0
2017-Dec-15 09:39N 47°11' W 122°50'1 3.9
2017-Dec-15 09:30N 47°11' W 122°49'2 4.2
2017-Dec-15 09:00N 47°10' W 122°47'4 4.9
2017-Dec-15 08:11N 47°07' W 122°42'1 5.1
2017-Dec-15 08:00N 47°08' W 122°41'2 4.4
2017-Dec-15 07:30N 47°10' W 122°39'3 5.8
2017-Dec-15 07:00N 47°12' W 122°36'510.1
2017-Dec-15 06:30N 47°16' W 122°33'5 9.3
2017-Dec-15 06:00N 47°21' W 122°33'4 7.7
2017-Dec-15 05:30N 47°25' W 122°32'4 8.4
2017-Dec-15 05:00N 47°29' W 122°30'3 6.7
2017-Dec-15 04:30N 47°32' W 122°28'3 5.9
2017-Dec-15 04:00N 47°34' W 122°26'3 2.0
2017-Dec-15 02:30N 47°35' W 122°22'1 0.5
2017-Dec-15 01:00N 47°34' W 122°22'0 0.0
2017-Dec-15 00:30N 47°34' W 122°22'0 0.0
2017-Dec-13 06:42N 47°34' W 122°22'0 0.0
2017-Dec-13 06:30N 47°34' W 122°22'0 0.0
2017-Dec-13 06:00N 47°34' W 122°22'0 0.0
2017-Dec-13 05:30N 47°34' W 122°22'0 0.0
2017-Dec-13 05:00N 47°34' W 122°22'0 0.0
2017-Dec-13 04:30N 47°34' W 122°22'0 0.0
2017-Dec-13 04:00N 47°34' W 122°22'0 0.0
2017-Dec-13 03:30N 47°34' W 122°22'0 0.0
2017-Dec-13 03:00N 47°34' W 122°22'0 0.0
2017-Dec-13 02:30N 47°34' W 122°22'0 0.0
2017-Dec-13 02:00N 47°34' W 122°22'0 0.0
2017-Dec-13 01:30N 47°34' W 122°22'0 0.0
2017-Dec-13 01:00N 47°34' W 122°22'0 0.0
2017-Dec-13 00:30N 47°34' W 122°22'0 0.0
2017-Dec-13 00:00N 47°34' W 122°22'0 0.0
2017-Dec-12 23:30N 47°34' W 122°22'0 0.0
2017-Dec-12 23:00N 47°34' W 122°22'0 0.0
2017-Dec-12 22:30N 47°34' W 122°22'0 0.0
2017-Dec-12 22:00N 47°34' W 122°22'0 0.0
2017-Dec-12 21:30N 47°34' W 122°22'0 0.0
2017-Dec-12 21:00N 47°34' W 122°22'0 0.0
2017-Dec-12 20:30N 47°34' W 122°22'0 0.0
2017-Dec-12 20:00N 47°34' W 122°22'0 0.0
2017-Dec-12 19:30N 47°34' W 122°22'0 0.0
2017-Dec-12 19:00N 47°34' W 122°22'0 0.0
2017-Dec-12 18:30N 47°34' W 122°22'0 0.0
2017-Dec-12 18:00N 47°34' W 122°22'0 0.0
2017-Dec-12 17:30N 47°34' W 122°22'0 0.0
2017-Dec-12 17:00N 47°34' W 122°22'0 0.3
2017-Dec-12 16:30N 47°34' W 122°21'0 0.1
2017-Dec-12 16:00N 47°34' W 122°21'0 0.0
2017-Dec-12 15:30N 47°34' W 122°21'0 0.0
2017-Dec-12 15:00N 47°34' W 122°21'0 0.0
2017-Dec-12 14:30N 47°34' W 122°21'0 0.0
2017-Dec-12 14:00N 47°34' W 122°21'0 0.0
2017-Dec-12 13:30N 47°34' W 122°21'0 0.0
2017-Dec-12 13:00N 47°34' W 122°21'0 0.0
2017-Dec-12 12:30N 47°34' W 122°21'0 0.0
2017-Dec-12 12:00N 47°34' W 122°21'0 0.0
2017-Dec-12 11:30N 47°34' W 122°21'0 0.0
2017-Dec-12 11:00N 47°34' W 122°21'0 0.0
2017-Dec-12 10:30N 47°34' W 122°21'0 0.0
2017-Dec-12 10:00N 47°34' W 122°21'0 0.0
2017-Dec-12 09:30N 47°34' W 122°21'0 0.0
2017-Dec-12 09:00N 47°34' W 122°21'0 0.0
2017-Dec-12 08:30N 47°34' W 122°21'0 0.0
2017-Dec-12 08:00N 47°34' W 122°21'0 0.0
2017-Dec-12 07:30N 47°34' W 122°21'0 0.0
2017-Dec-12 07:00N 47°34' W 122°21'0 0.0
2017-Dec-12 06:30N 47°34' W 122°21'0 0.0
2017-Dec-12 06:00N 47°34' W 122°21'0 0.0
2017-Dec-12 05:30N 47°34' W 122°21'0 0.0
2017-Dec-12 05:00N 47°34' W 122°21'0 0.0
2017-Dec-12 04:30N 47°34' W 122°21'0 0.0
2017-Dec-12 04:00N 47°34' W 122°21'0 0.0
2017-Dec-12 03:30N 47°34' W 122°21'0 0.0
2017-Dec-12 03:00N 47°34' W 122°21'0 0.0
2017-Dec-12 02:30N 47°34' W 122°21'0 0.0
2017-Dec-12 02:00N 47°34' W 122°21'0 0.0
2017-Dec-12 01:30N 47°34' W 122°21'0 0.0
2017-Dec-12 01:00N 47°34' W 122°21'0 0.0
2017-Dec-12 00:30N 47°34' W 122°21'0 0.0
2017-Dec-12 00:00N 47°34' W 122°21'0 0.0
2017-Dec-11 23:30N 47°34' W 122°21'0 0.0
2017-Dec-11 23:00N 47°34' W 122°21'0 0.0
2017-Dec-11 22:30N 47°34' W 122°21'0 0.0
2017-Dec-11 22:00N 47°34' W 122°21'0 0.0
2017-Dec-11 21:30N 47°34' W 122°21'0 0.0
2017-Dec-11 21:00N 47°34' W 122°21'0 0.0
2017-Dec-11 20:30N 47°34' W 122°21'0 0.0
2017-Dec-11 20:00N 47°34' W 122°21'0 0.0
2017-Dec-11 19:30N 47°34' W 122°21'0 0.0
2017-Dec-11 19:00N 47°34' W 122°21'0 0.0
2017-Dec-11 18:30N 47°34' W 122°21'0 0.0
2017-Dec-11 18:00N 47°34' W 122°21'0 0.0
2017-Dec-11 17:30N 47°34' W 122°21'0 0.0
2017-Dec-11 17:00N 47°34' W 122°21'0 0.0
2017-Dec-11 16:30N 47°34' W 122°21'0 0.0
2017-Dec-11 16:00N 47°34' W 122°21'0 0.0
2017-Dec-11 15:30N 47°34' W 122°21'0 0.0
2017-Dec-11 15:00N 47°34' W 122°21'0 0.0
2017-Dec-11 14:30N 47°34' W 122°21'0 0.0
2017-Dec-11 14:00N 47°34' W 122°21'0 0.0
2017-Dec-11 13:30N 47°34' W 122°21'0 0.0
2017-Dec-11 13:00N 47°34' W 122°21'0 0.0
2017-Dec-11 12:30N 47°34' W 122°21'0 0.0
2017-Dec-11 12:00N 47°34' W 122°21'0 0.0
2017-Dec-11 11:30N 47°34' W 122°21'0 0.0
2017-Dec-11 11:00N 47°34' W 122°21'0 0.0
2017-Dec-11 10:30N 47°34' W 122°21'0 0.0
2017-Dec-11 10:00N 47°34' W 122°21'0 0.0
2017-Dec-11 09:30N 47°34' W 122°21'0 0.0
2017-Dec-11 09:00N 47°34' W 122°21'0 0.0
2017-Dec-11 08:30N 47°34' W 122°21'0 0.0
2017-Dec-11 08:00N 47°34' W 122°21'0 0.0
2017-Dec-11 07:30N 47°34' W 122°21'0 0.0
2017-Dec-11 07:00N 47°34' W 122°21'0 0.0
2017-Dec-11 06:30N 47°34' W 122°21'0 0.0
2017-Dec-11 06:00N 47°34' W 122°21'0 0.0
2017-Dec-11 05:30N 47°34' W 122°21'0 0.0
2017-Dec-11 05:00N 47°34' W 122°21'0 0.0
2017-Dec-11 04:30N 47°34' W 122°21'0 0.0
2017-Dec-11 04:00N 47°34' W 122°21'0 0.0
2017-Dec-11 03:30N 47°34' W 122°21'0 0.0
2017-Dec-11 03:00N 47°34' W 122°21'0 0.0
2017-Dec-11 02:30N 47°34' W 122°21'0 0.0
2017-Dec-11 02:00N 47°34' W 122°21'0 0.0
2017-Dec-11 01:30N 47°34' W 122°21'0 0.0
2017-Dec-11 01:00N 47°34' W 122°21'0 0.0
2017-Dec-11 00:30N 47°34' W 122°21'0 0.0
2017-Dec-11 00:00N 47°34' W 122°21'0 0.0
2017-Dec-10 23:30N 47°34' W 122°21'0 0.0
2017-Dec-10 23:00N 47°34' W 122°21'0 0.0
2017-Dec-10 22:30N 47°34' W 122°21'0 0.0
2017-Dec-10 22:00N 47°34' W 122°21'0 0.0
2017-Dec-10 21:30N 47°34' W 122°21'0 0.0
2017-Dec-10 21:00N 47°34' W 122°21'0 0.0
2017-Dec-10 20:31N 47°34' W 122°21'0 0.0
2017-Dec-10 20:00N 47°34' W 122°21'0 0.0
2017-Dec-10 19:30N 47°34' W 122°21'0 0.0
2017-Dec-10 19:00N 47°34' W 122°21'0 0.0
2017-Dec-10 18:30N 47°34' W 122°21'0 0.0
2017-Dec-10 18:00N 47°34' W 122°21'0 0.0
2017-Dec-10 17:30N 47°34' W 122°21'0 0.0
2017-Dec-10 17:00N 47°34' W 122°21'0 0.0
2017-Dec-10 16:30N 47°34' W 122°21'0 0.0
2017-Dec-10 16:00N 47°34' W 122°21'0 0.0
2017-Dec-10 15:30N 47°34' W 122°21'0 0.0
2017-Dec-10 15:00N 47°34' W 122°21'0 0.0
2017-Dec-10 14:30N 47°34' W 122°21'0 0.0
2017-Dec-10 14:00N 47°34' W 122°21'0 0.0
2017-Dec-10 13:30N 47°34' W 122°21'0 0.0
2017-Dec-10 13:00N 47°34' W 122°21'0 0.0
2017-Dec-10 12:30N 47°34' W 122°21'0 0.0
2017-Dec-10 12:00N 47°34' W 122°21'0 0.0
2017-Dec-10 11:30N 47°34' W 122°21'0 0.0
2017-Dec-10 11:00N 47°34' W 122°21'0 0.0
2017-Dec-10 10:30N 47°34' W 122°21'0 0.0
2017-Dec-10 10:00N 47°34' W 122°21'0 0.0
2017-Dec-10 09:30N 47°34' W 122°21'0 0.0
2017-Dec-10 09:00N 47°34' W 122°21'0 0.0
2017-Dec-10 08:30N 47°34' W 122°21'0 0.0
2017-Dec-10 08:00N 47°34' W 122°21'0 0.0
2017-Dec-10 07:30N 47°34' W 122°21'0 0.0
2017-Dec-10 07:00N 47°34' W 122°21'0 0.0
2017-Dec-10 06:30N 47°34' W 122°21'0 0.0
2017-Dec-10 06:00N 47°34' W 122°21'0 0.0
2017-Dec-10 05:30N 47°34' W 122°21'0 0.0
2017-Dec-10 05:00N 47°34' W 122°21'0 0.0
2017-Dec-10 04:30N 47°34' W 122°21'0 0.0
2017-Dec-10 04:00N 47°34' W 122°21'0 0.0
2017-Dec-10 03:30N 47°34' W 122°21'0 0.0
2017-Dec-10 03:00N 47°34' W 122°21'0 0.0
2017-Dec-10 02:30N 47°34' W 122°21'0 0.0
2017-Dec-10 02:00N 47°34' W 122°21'0 0.0
2017-Dec-10 01:30N 47°34' W 122°21'0 0.0
2017-Dec-10 01:00N 47°34' W 122°21'0 0.0
2017-Dec-10 00:30N 47°34' W 122°21'0 0.0
2017-Dec-10 00:00N 47°34' W 122°21'0 0.0
2017-Dec-09 23:30N 47°34' W 122°21'0 0.0
2017-Dec-09 23:00N 47°34' W 122°21'0 0.0
2017-Dec-09 22:30N 47°34' W 122°21'0 0.0
2017-Dec-09 22:00N 47°34' W 122°21'0 0.0
2017-Dec-09 21:30N 47°34' W 122°21'0 0.1
2017-Dec-09 21:00N 47°34' W 122°21'0 0.1
2017-Dec-09 20:30N 47°34' W 122°21'0 0.0
2017-Dec-09 20:00N 47°34' W 122°21'0 0.0
2017-Dec-09 19:30N 47°34' W 122°21'0 0.0
2017-Dec-09 19:00N 47°34' W 122°21'0 0.0
2017-Dec-09 18:30N 47°34' W 122°21'0 0.0
2017-Dec-09 18:00N 47°34' W 122°21'0 0.0
2017-Dec-09 17:30N 47°34' W 122°21'0 0.0
2017-Dec-09 17:00N 47°34' W 122°21'0 0.0
2017-Dec-09 16:30N 47°34' W 122°21'0 0.0
2017-Dec-09 16:00N 47°34' W 122°21'0 0.0
2017-Dec-09 15:30N 47°34' W 122°21'0 0.0
2017-Dec-09 15:00N 47°34' W 122°21'0 0.0
2017-Dec-09 14:30N 47°34' W 122°21'0 0.0
2017-Dec-09 14:00N 47°34' W 122°21'0 0.0
2017-Dec-09 13:30N 47°34' W 122°21'0 0.0
2017-Dec-09 13:00N 47°34' W 122°21'0 0.0
2017-Dec-09 12:30N 47°34' W 122°21'0 0.0
2017-Dec-09 12:00N 47°34' W 122°21'0 0.0
2017-Dec-09 11:30N 47°34' W 122°21'0 0.0
2017-Dec-09 11:00N 47°34' W 122°21'0 0.0
2017-Dec-09 10:30N 47°34' W 122°21'0 0.0
2017-Dec-09 10:00N 47°34' W 122°21'0 0.0
2017-Dec-09 09:30N 47°34' W 122°21'0 0.0
2017-Dec-09 09:00N 47°34' W 122°21'0 0.0
2017-Dec-09 08:30N 47°34' W 122°21'0 0.0
2017-Dec-09 08:00N 47°34' W 122°21'0 0.0
2017-Dec-09 07:30N 47°34' W 122°21'0 0.0
2017-Dec-09 07:00N 47°34' W 122°21'0 0.0
2017-Dec-09 06:30N 47°34' W 122°21'0 0.0
2017-Dec-09 06:00N 47°34' W 122°21'0 0.0
2017-Dec-09 05:30N 47°34' W 122°21'0 0.0
2017-Dec-09 05:00N 47°34' W 122°21'0 0.0
2017-Dec-09 04:30N 47°34' W 122°21'0 0.0
2017-Dec-09 04:00N 47°34' W 122°21'0 0.0
2017-Dec-09 03:30N 47°34' W 122°21'0 0.0
2017-Dec-09 03:00N 47°34' W 122°21'0 0.0
2017-Dec-09 02:30N 47°34' W 122°21'0 0.0
2017-Dec-09 02:00N 47°34' W 122°21'0 0.0
2017-Dec-09 01:30N 47°34' W 122°21'0 0.0
2017-Dec-09 01:00N 47°34' W 122°21'0 0.0
2017-Dec-09 00:30N 47°34' W 122°21'0 0.0
2017-Dec-09 00:00N 47°34' W 122°21'0 0.0
2017-Dec-08 23:30N 47°34' W 122°21'0 0.0
2017-Dec-08 23:00N 47°34' W 122°21'0 0.0
2017-Dec-08 22:30N 47°34' W 122°21'0 0.0
2017-Dec-08 22:00N 47°34' W 122°21'0 0.0
2017-Dec-08 21:30N 47°34' W 122°21'0 0.0
2017-Dec-08 21:00N 47°34' W 122°21'0 0.0
2017-Dec-08 20:30N 47°34' W 122°21'0 0.0
2017-Dec-08 20:00N 47°34' W 122°21'0 0.0
2017-Dec-08 19:30N 47°34' W 122°21'0 0.0
2017-Dec-08 19:00N 47°34' W 122°21'0 0.0
2017-Dec-08 18:30N 47°34' W 122°21'0 0.0
2017-Dec-08 18:00N 47°34' W 122°21'0 0.0
2017-Dec-08 17:30N 47°34' W 122°21'0 0.0
2017-Dec-08 17:00N 47°34' W 122°21'0 0.0
2017-Dec-08 16:30N 47°34' W 122°21'0 0.0
2017-Dec-08 16:00N 47°34' W 122°21'0 0.0
2017-Dec-08 15:30N 47°34' W 122°21'0 0.0
2017-Dec-08 15:00N 47°34' W 122°21'0 0.0
2017-Dec-08 14:30N 47°34' W 122°21'0 0.0
2017-Dec-08 14:01N 47°34' W 122°21'0 0.0
2017-Dec-08 13:30N 47°34' W 122°21'0 0.0
2017-Dec-08 13:00N 47°34' W 122°21'0 0.0
2017-Dec-08 12:30N 47°34' W 122°21'0 0.0
2017-Dec-08 12:00N 47°34' W 122°21'0 0.0
2017-Dec-08 11:30N 47°34' W 122°21'0 0.0
2017-Dec-08 11:00N 47°34' W 122°21'0 0.0
2017-Dec-08 10:30N 47°34' W 122°21'0 0.0
2017-Dec-08 10:00N 47°34' W 122°21'0 0.0
2017-Dec-08 09:30N 47°34' W 122°21'0 0.0
2017-Dec-08 09:00N 47°34' W 122°21'0 0.0
2017-Dec-08 08:30N 47°34' W 122°21'0 0.0
2017-Dec-08 08:00N 47°34' W 122°21'0 0.0
2017-Dec-08 07:30N 47°34' W 122°21'0 0.0
2017-Dec-08 07:00N 47°34' W 122°21'0 0.0
2017-Dec-08 06:30N 47°34' W 122°21'0 0.0
2017-Dec-08 06:00N 47°34' W 122°21'0 0.0
2017-Dec-08 05:30N 47°34' W 122°21'0 0.0
2017-Dec-08 05:00N 47°34' W 122°21'0 0.0
2017-Dec-08 04:30N 47°34' W 122°21'0 0.0
2017-Dec-08 04:00N 47°34' W 122°21'0 0.0
2017-Dec-08 03:30N 47°34' W 122°21'0 0.0
2017-Dec-08 03:00N 47°34' W 122°21'0 0.0
2017-Dec-08 02:30N 47°34' W 122°21'0 0.0
2017-Dec-08 02:00N 47°34' W 122°21'0 0.0
2017-Dec-08 01:30N 47°34' W 122°21'0 0.0
2017-Dec-08 01:00N 47°34' W 122°21'0 0.0
2017-Dec-08 00:30N 47°34' W 122°21'0 0.0
2017-Dec-08 00:00N 47°34' W 122°21'0 0.0
2017-Dec-07 23:30N 47°34' W 122°21'0 0.0
2017-Dec-07 23:00N 47°34' W 122°21'0 0.0
2017-Dec-07 22:30N 47°34' W 122°21'0 0.0
2017-Dec-07 22:00N 47°34' W 122°21'0 0.0
2017-Dec-07 21:30N 47°34' W 122°21'0 0.0
2017-Dec-07 21:00N 47°34' W 122°21'0 0.0
2017-Dec-07 20:30N 47°34' W 122°21'0 0.0
2017-Dec-07 20:00N 47°34' W 122°21'0 0.0
2017-Dec-07 19:30N 47°34' W 122°21'0 0.0
2017-Dec-07 19:00N 47°34' W 122°21'0 0.0
2017-Dec-07 18:30N 47°34' W 122°21'0 0.0
2017-Dec-07 18:00N 47°34' W 122°21'0 0.0
2017-Dec-07 17:30N 47°34' W 122°21'0 0.0
2017-Dec-07 17:00N 47°34' W 122°21'0 0.0
2017-Dec-07 16:30N 47°34' W 122°21'0 0.0
2017-Dec-07 16:00N 47°34' W 122°21'0 0.0
2017-Dec-07 15:30N 47°34' W 122°21'0 0.0
2017-Dec-07 15:00N 47°34' W 122°21'0 0.0
2017-Dec-07 14:30N 47°34' W 122°21'0 0.0
2017-Dec-07 14:00N 47°34' W 122°21'0 0.0
2017-Dec-07 13:30N 47°34' W 122°21'0 0.0
2017-Dec-07 13:00N 47°34' W 122°21'0 0.0
2017-Dec-07 12:31N 47°34' W 122°21'0 0.0
2017-Dec-07 12:00N 47°34' W 122°21'0 0.0
2017-Dec-07 11:30N 47°34' W 122°21'0 0.0
2017-Dec-07 11:00N 47°34' W 122°21'0 0.0
2017-Dec-07 10:30N 47°34' W 122°21'0 0.0
2017-Dec-07 10:00N 47°34' W 122°21'0 0.0
2017-Dec-07 09:30N 47°34' W 122°21'0 0.0
2017-Dec-07 09:01N 47°34' W 122°21'0 0.0
2017-Dec-07 08:30N 47°34' W 122°21'0 0.0
2017-Dec-07 08:00N 47°34' W 122°21'0 0.0
2017-Dec-07 07:30N 47°34' W 122°21'0 0.0
2017-Dec-07 07:00N 47°34' W 122°21'0 0.0
2017-Dec-07 06:30N 47°34' W 122°21'0 0.0
2017-Dec-07 06:00N 47°34' W 122°21'0 0.0
2017-Dec-07 05:30N 47°34' W 122°21'0 0.0
2017-Dec-07 05:00N 47°34' W 122°21'0 0.0
2017-Dec-07 04:30N 47°34' W 122°21'0 0.0
2017-Dec-07 04:00N 47°34' W 122°21'0 0.0
2017-Dec-07 03:30N 47°34' W 122°21'0 0.0
2017-Dec-07 03:00N 47°34' W 122°21'0 0.0
2017-Dec-07 02:30N 47°34' W 122°21'0 0.0
2017-Dec-07 02:00N 47°34' W 122°21'0 0.0
2017-Dec-07 01:30N 47°34' W 122°21'0 0.0
2017-Dec-07 01:00N 47°34' W 122°21'0 0.0
2017-Dec-07 00:30N 47°34' W 122°21'0 0.0
2017-Dec-07 00:00N 47°34' W 122°21'0 0.0
2017-Dec-06 23:30N 47°34' W 122°21'0 0.0
2017-Dec-06 23:00N 47°34' W 122°21'0 0.0
2017-Dec-06 22:30N 47°34' W 122°21'0 0.0
2017-Dec-06 22:00N 47°34' W 122°21'0 0.0
2017-Dec-06 21:30N 47°34' W 122°21'0 0.0
2017-Dec-06 21:01N 47°34' W 122°21'  
Track history (hours):
 
Tides and Currents Weather Stations Pressure Air Temp Water Temp Dewpoint Dewpoint Depression Visibility Wind Speed Wind Dir Waves Ship Positions

Island Scout

Owner: Island Tug and Barge, Seattle, WA. More information available from US FCC via Universal Licensing System and Coast Guard Vessel Documentation Center.

Last reported at 2017-Dec-16 16:51 UTC. Time now 2017-Dec-18 06:49 UTC.
Position N 47°34' W 122°22'.

Type: Tug. MMSI: 367058210.

Date/timePositionNaut miles runAvg speedWind from/ knotsBaromVisibWave heightAir tempDewpointWater temp
2017-Dec-16 16:51N 47°34' W 122°22'0 0.0
2017-Dec-16 16:30N 47°34' W 122°22'0 0.0
2017-Dec-16 16:00N 47°34' W 122°22'0 0.0
2017-Dec-16 15:30N 47°34' W 122°22'0 0.0
2017-Dec-16 15:00N 47°34' W 122°22'0 0.0
2017-Dec-16 14:30N 47°34' W 122°22'0 0.0
2017-Dec-16 13:59N 47°34' W 122°22'0 0.0
2017-Dec-16 13:29N 47°34' W 122°22'0 0.0
2017-Dec-16 13:00N 47°34' W 122°22'0 0.0
2017-Dec-16 12:30N 47°34' W 122°22'0 0.0
2017-Dec-16 12:00N 47°34' W 122°22'0 0.0
2017-Dec-16 11:30N 47°34' W 122°22'0 0.0
2017-Dec-16 11:00N 47°34' W 122°22'0 0.0
2017-Dec-16 10:30N 47°34' W 122°22'0 0.0
2017-Dec-16 10:00N 47°34' W 122°22'0 0.0
2017-Dec-16 09:30N 47°34' W 122°22'0 0.0
2017-Dec-16 09:00N 47°34' W 122°22'0 0.0
2017-Dec-16 08:30N 47°34' W 122°22'0 0.0
2017-Dec-16 08:00N 47°34' W 122°22'0 0.0
2017-Dec-16 07:30N 47°34' W 122°22'0 0.0
2017-Dec-16 07:00N 47°34' W 122°22'0 0.0
2017-Dec-16 06:30N 47°34' W 122°22'0 0.0
2017-Dec-16 06:00N 47°34' W 122°22'0 0.0
2017-Dec-16 05:30N 47°34' W 122°22'0 0.0
2017-Dec-16 05:00N 47°34' W 122°22'0 0.0
2017-Dec-16 04:30N 47°34' W 122°22'0 0.0
2017-Dec-16 04:00N 47°34' W 122°22'0 0.0
2017-Dec-16 03:30N 47°34' W 122°22'0 0.0
2017-Dec-16 03:00N 47°34' W 122°22'0 0.0
2017-Dec-16 02:30N 47°34' W 122°22'0 0.0
2017-Dec-16 02:00N 47°34' W 122°22'0 0.0
2017-Dec-16 01:30N 47°34' W 122°22'0 0.0
2017-Dec-16 01:00N 47°34' W 122°22'0 0.1
2017-Dec-16 00:30N 47°34' W 122°22'0 0.1
2017-Dec-16 00:00N 47°35' W 122°22'1 2.4
2017-Dec-15 23:30N 47°36' W 122°22'0 0.7
2017-Dec-15 23:00N 47°36' W 122°23'1 1.9
2017-Dec-15 22:30N 47°36' W 122°24'2 3.8
2017-Dec-15 22:00N 47°35' W 122°26'3 5.8
2017-Dec-15 21:30N 47°32' W 122°28'3 6.5
2017-Dec-15 21:00N 47°29' W 122°30'3 7.0
2017-Dec-15 20:30N 47°26' W 122°31'3 5.9
2017-Dec-15 20:00N 47°23' W 122°32'2 4.8
2017-Dec-15 19:30N 47°21' W 122°33'2 4.2
2017-Dec-15 19:00N 47°19' W 122°33'2 3.8
2017-Dec-15 18:30N 47°17' W 122°33'2 4.7
2017-Dec-15 18:00N 47°15' W 122°34'3 5.5
2017-Dec-15 17:30N 47°12' W 122°36'3 5.3
2017-Dec-15 17:00N 47°10' W 122°38'3 5.4
2017-Dec-15 16:30N 47°08' W 122°40'7 5.1
2017-Dec-15 15:09N 47°11' W 122°49'3 6.9
2017-Dec-15 14:47N 47°10' W 122°52'1 4.0
2017-Dec-15 14:29N 47°10' W 122°54'2 3.1
2017-Dec-15 14:00N 47°11' W 122°56'1 2.7
2017-Dec-15 13:30N 47°12' W 122°56'0 0.6
2017-Dec-15 13:00N 47°12' W 122°56'1 1.6
2017-Dec-15 12:30N 47°12' W 122°56'0 0.7
2017-Dec-15 12:00N 47°11' W 122°56'2 3.4
2017-Dec-15 11:28N 47°10' W 122°54'0 1.0
2017-Dec-15 11:00N 47°10' W 122°54'0 0.3
2017-Dec-15 10:29N 47°10' W 122°54'3 4.0
2017-Dec-15 09:39N 47°11' W 122°50'1 3.9
2017-Dec-15 09:30N 47°11' W 122°49'2 4.2
2017-Dec-15 09:00N 47°10' W 122°47'4 4.9
2017-Dec-15 08:11N 47°07' W 122°42'1 5.1
2017-Dec-15 08:00N 47°08' W 122°41'2 4.4
2017-Dec-15 07:30N 47°10' W 122°39'3 5.8
2017-Dec-15 07:00N 47°12' W 122°36'510.1
2017-Dec-15 06:30N 47°16' W 122°33'5 9.3
2017-Dec-15 06:00N 47°21' W 122°33'4 7.7
2017-Dec-15 05:30N 47°25' W 122°32'4 8.4
2017-Dec-15 05:00N 47°29' W 122°30'3 6.7
2017-Dec-15 04:30N 47°32' W 122°28'3 5.9
2017-Dec-15 04:00N 47°34' W 122°26'3 2.0
2017-Dec-15 02:30N 47°35' W 122°22'1 0.5
2017-Dec-15 01:00N 47°34' W 122°22'0 0.0
2017-Dec-15 00:30N 47°34' W 122°22'0 0.0
2017-Dec-13 06:42N 47°34' W 122°22'0 0.0
2017-Dec-13 06:30N 47°34' W 122°22'0 0.0
2017-Dec-13 06:00N 47°34' W 122°22'0 0.0
2017-Dec-13 05:30N 47°34' W 122°22'0 0.0
2017-Dec-13 05:00N 47°34' W 122°22'0 0.0
2017-Dec-13 04:30N 47°34' W 122°22'0 0.0
2017-Dec-13 04:00N 47°34' W 122°22'0 0.0
2017-Dec-13 03:30N 47°34' W 122°22'0 0.0
2017-Dec-13 03:00N 47°34' W 122°22'0 0.0
2017-Dec-13 02:30N 47°34' W 122°22'0 0.0
2017-Dec-13 02:00N 47°34' W 122°22'0 0.0
2017-Dec-13 01:30N 47°34' W 122°22'0 0.0
2017-Dec-13 01:00N 47°34' W 122°22'0 0.0
2017-Dec-13 00:30N 47°34' W 122°22'0 0.0
2017-Dec-13 00:00N 47°34' W 122°22'0 0.0
2017-Dec-12 23:30N 47°34' W 122°22'0 0.0
2017-Dec-12 23:00N 47°34' W 122°22'0 0.0
2017-Dec-12 22:30N 47°34' W 122°22'0 0.0
2017-Dec-12 22:00N 47°34' W 122°22'0 0.0
2017-Dec-12 21:30N 47°34' W 122°22'0 0.0
2017-Dec-12 21:00N 47°34' W 122°22'0 0.0
2017-Dec-12 20:30N 47°34' W 122°22'0 0.0
2017-Dec-12 20:00N 47°34' W 122°22'0 0.0
2017-Dec-12 19:30N 47°34' W 122°22'0 0.0
2017-Dec-12 19:00N 47°34' W 122°22'0 0.0
2017-Dec-12 18:30N 47°34' W 122°22'0 0.0
2017-Dec-12 18:00N 47°34' W 122°22'0 0.0
2017-Dec-12 17:30N 47°34' W 122°22'0 0.0
2017-Dec-12 17:00N 47°34' W 122°22'0 0.3
2017-Dec-12 16:30N 47°34' W 122°21'0 0.1
2017-Dec-12 16:00N 47°34' W 122°21'0 0.0
2017-Dec-12 15:30N 47°34' W 122°21'0 0.0
2017-Dec-12 15:00N 47°34' W 122°21'0 0.0
2017-Dec-12 14:30N 47°34' W 122°21'0 0.0
2017-Dec-12 14:00N 47°34' W 122°21'0 0.0
2017-Dec-12 13:30N 47°34' W 122°21'0 0.0
2017-Dec-12 13:00N 47°34' W 122°21'0 0.0
2017-Dec-12 12:30N 47°34' W 122°21'0 0.0
2017-Dec-12 12:00N 47°34' W 122°21'0 0.0
2017-Dec-12 11:30N 47°34' W 122°21'0 0.0
2017-Dec-12 11:00N 47°34' W 122°21'0 0.0
2017-Dec-12 10:30N 47°34' W 122°21'0 0.0
2017-Dec-12 10:00N 47°34' W 122°21'0 0.0
2017-Dec-12 09:30N 47°34' W 122°21'0 0.0
2017-Dec-12 09:00N 47°34' W 122°21'0 0.0
2017-Dec-12 08:30N 47°34' W 122°21'0 0.0
2017-Dec-12 08:00N 47°34' W 122°21'0 0.0
2017-Dec-12 07:30N 47°34' W 122°21'0 0.0
2017-Dec-12 07:00N 47°34' W 122°21'0 0.0
2017-Dec-12 06:30N 47°34' W 122°21'0 0.0
2017-Dec-12 06:00N 47°34' W 122°21'0 0.0
2017-Dec-12 05:30N 47°34' W 122°21'0 0.0
2017-Dec-12 05:00N 47°34' W 122°21'0 0.0
2017-Dec-12 04:30N 47°34' W 122°21'0 0.0
2017-Dec-12 04:00N 47°34' W 122°21'0 0.0
2017-Dec-12 03:30N 47°34' W 122°21'0 0.0
2017-Dec-12 03:00N 47°34' W 122°21'0 0.0
2017-Dec-12 02:30N 47°34' W 122°21'0 0.0
2017-Dec-12 02:00N 47°34' W 122°21'0 0.0
2017-Dec-12 01:30N 47°34' W 122°21'0 0.0
2017-Dec-12 01:00N 47°34' W 122°21'0 0.0
2017-Dec-12 00:30N 47°34' W 122°21'0 0.0
2017-Dec-12 00:00N 47°34' W 122°21'0 0.0
2017-Dec-11 23:30N 47°34' W 122°21'0 0.0
2017-Dec-11 23:00N 47°34' W 122°21'0 0.0
2017-Dec-11 22:30N 47°34' W 122°21'0 0.0
2017-Dec-11 22:00N 47°34' W 122°21'0 0.0
2017-Dec-11 21:30N 47°34' W 122°21'0 0.0
2017-Dec-11 21:00N 47°34' W 122°21'0 0.0
2017-Dec-11 20:30N 47°34' W 122°21'0 0.0
2017-Dec-11 20:00N 47°34' W 122°21'0 0.0
2017-Dec-11 19:30N 47°34' W 122°21'0 0.0
2017-Dec-11 19:00N 47°34' W 122°21'0 0.0
2017-Dec-11 18:30N 47°34' W 122°21'0 0.0
2017-Dec-11 18:00N 47°34' W 122°21'0 0.0
2017-Dec-11 17:30N 47°34' W 122°21'0 0.0
2017-Dec-11 17:00N 47°34' W 122°21'0 0.0
2017-Dec-11 16:30N 47°34' W 122°21'0 0.0
2017-Dec-11 16:00N 47°34' W 122°21'0 0.0
2017-Dec-11 15:30N 47°34' W 122°21'0 0.0
2017-Dec-11 15:00N 47°34' W 122°21'0 0.0
2017-Dec-11 14:30N 47°34' W 122°21'0 0.0
2017-Dec-11 14:00N 47°34' W 122°21'0 0.0
2017-Dec-11 13:30N 47°34' W 122°21'0 0.0
2017-Dec-11 13:00N 47°34' W 122°21'0 0.0
2017-Dec-11 12:30N 47°34' W 122°21'0 0.0
2017-Dec-11 12:00N 47°34' W 122°21'0 0.0
2017-Dec-11 11:30N 47°34' W 122°21'0 0.0
2017-Dec-11 11:00N 47°34' W 122°21'0 0.0
2017-Dec-11 10:30N 47°34' W 122°21'0 0.0
2017-Dec-11 10:00N 47°34' W 122°21'0 0.0
2017-Dec-11 09:30N 47°34' W 122°21'0 0.0
2017-Dec-11 09:00N 47°34' W 122°21'0 0.0
2017-Dec-11 08:30N 47°34' W 122°21'0 0.0
2017-Dec-11 08:00N 47°34' W 122°21'0 0.0
2017-Dec-11 07:30N 47°34' W 122°21'0 0.0
2017-Dec-11 07:00N 47°34' W 122°21'0 0.0
2017-Dec-11 06:30N 47°34' W 122°21'0 0.0
2017-Dec-11 06:00N 47°34' W 122°21'0 0.0
2017-Dec-11 05:30N 47°34' W 122°21'0 0.0
2017-Dec-11 05:00N 47°34' W 122°21'0 0.0
2017-Dec-11 04:30N 47°34' W 122°21'0 0.0
2017-Dec-11 04:00N 47°34' W 122°21'0 0.0
2017-Dec-11 03:30N 47°34' W 122°21'0 0.0
2017-Dec-11 03:00N 47°34' W 122°21'0 0.0
2017-Dec-11 02:30N 47°34' W 122°21'0 0.0
2017-Dec-11 02:00N 47°34' W 122°21'0 0.0
2017-Dec-11 01:30N 47°34' W 122°21'0 0.0
2017-Dec-11 01:00N 47°34' W 122°21'0 0.0
2017-Dec-11 00:30N 47°34' W 122°21'0 0.0
2017-Dec-11 00:00N 47°34' W 122°21'0 0.0
2017-Dec-10 23:30N 47°34' W 122°21'0 0.0
2017-Dec-10 23:00N 47°34' W 122°21'0 0.0
2017-Dec-10 22:30N 47°34' W 122°21'0 0.0
2017-Dec-10 22:00N 47°34' W 122°21'0 0.0
2017-Dec-10 21:30N 47°34' W 122°21'0 0.0
2017-Dec-10 21:00N 47°34' W 122°21'0 0.0
2017-Dec-10 20:31N 47°34' W 122°21'0 0.0
2017-Dec-10 20:00N 47°34' W 122°21'0 0.0
2017-Dec-10 19:30N 47°34' W 122°21'0 0.0
2017-Dec-10 19:00N 47°34' W 122°21'0 0.0
2017-Dec-10 18:30N 47°34' W 122°21'0 0.0
2017-Dec-10 18:00N 47°34' W 122°21'0 0.0
2017-Dec-10 17:30N 47°34' W 122°21'0 0.0
2017-Dec-10 17:00N 47°34' W 122°21'0 0.0
2017-Dec-10 16:30N 47°34' W 122°21'0 0.0
2017-Dec-10 16:00N 47°34' W 122°21'0 0.0
2017-Dec-10 15:30N 47°34' W 122°21'0 0.0
2017-Dec-10 15:00N 47°34' W 122°21'0 0.0
2017-Dec-10 14:30N 47°34' W 122°21'0 0.0
2017-Dec-10 14:00N 47°34' W 122°21'0 0.0
2017-Dec-10 13:30N 47°34' W 122°21'0 0.0
2017-Dec-10 13:00N 47°34' W 122°21'0 0.0
2017-Dec-10 12:30N 47°34' W 122°21'0 0.0
2017-Dec-10 12:00N 47°34' W 122°21'0 0.0
2017-Dec-10 11:30N 47°34' W 122°21'0 0.0
2017-Dec-10 11:00N 47°34' W 122°21'0 0.0
2017-Dec-10 10:30N 47°34' W 122°21'0 0.0
2017-Dec-10 10:00N 47°34' W 122°21'0 0.0
2017-Dec-10 09:30N 47°34' W 122°21'0 0.0
2017-Dec-10 09:00N 47°34' W 122°21'0 0.0
2017-Dec-10 08:30N 47°34' W 122°21'0 0.0
2017-Dec-10 08:00N 47°34' W 122°21'0 0.0
2017-Dec-10 07:30N 47°34' W 122°21'0 0.0
2017-Dec-10 07:00N 47°34' W 122°21'0 0.0
2017-Dec-10 06:30N 47°34' W 122°21'0 0.0
2017-Dec-10 06:00N 47°34' W 122°21'0 0.0
2017-Dec-10 05:30N 47°34' W 122°21'0 0.0
2017-Dec-10 05:00N 47°34' W 122°21'0 0.0
2017-Dec-10 04:30N 47°34' W 122°21'0 0.0
2017-Dec-10 04:00N 47°34' W 122°21'0 0.0
2017-Dec-10 03:30N 47°34' W 122°21'0 0.0
2017-Dec-10 03:00N 47°34' W 122°21'0 0.0
2017-Dec-10 02:30N 47°34' W 122°21'0 0.0
2017-Dec-10 02:00N 47°34' W 122°21'0 0.0
2017-Dec-10 01:30N 47°34' W 122°21'0 0.0
2017-Dec-10 01:00N 47°34' W 122°21'0 0.0
2017-Dec-10 00:30N 47°34' W 122°21'0 0.0
2017-Dec-10 00:00N 47°34' W 122°21'0 0.0
2017-Dec-09 23:30N 47°34' W 122°21'0 0.0
2017-Dec-09 23:00N 47°34' W 122°21'0 0.0
2017-Dec-09 22:30N 47°34' W 122°21'0 0.0
2017-Dec-09 22:00N 47°34' W 122°21'0 0.0
2017-Dec-09 21:30N 47°34' W 122°21'0 0.1
2017-Dec-09 21:00N 47°34' W 122°21'0 0.1
2017-Dec-09 20:30N 47°34' W 122°21'0 0.0
2017-Dec-09 20:00N 47°34' W 122°21'0 0.0
2017-Dec-09 19:30N 47°34' W 122°21'0 0.0
2017-Dec-09 19:00N 47°34' W 122°21'0 0.0
2017-Dec-09 18:30N 47°34' W 122°21'0 0.0
2017-Dec-09 18:00N 47°34' W 122°21'0 0.0
2017-Dec-09 17:30N 47°34' W 122°21'0 0.0
2017-Dec-09 17:00N 47°34' W 122°21'0 0.0
2017-Dec-09 16:30N 47°34' W 122°21'0 0.0
2017-Dec-09 16:00N 47°34' W 122°21'0 0.0
2017-Dec-09 15:30N 47°34' W 122°21'0 0.0
2017-Dec-09 15:00N 47°34' W 122°21'0 0.0
2017-Dec-09 14:30N 47°34' W 122°21'0 0.0
2017-Dec-09 14:00N 47°34' W 122°21'0 0.0
2017-Dec-09 13:30N 47°34' W 122°21'0 0.0
2017-Dec-09 13:00N 47°34' W 122°21'0 0.0
2017-Dec-09 12:30N 47°34' W 122°21'0 0.0
2017-Dec-09 12:00N 47°34' W 122°21'0 0.0
2017-Dec-09 11:30N 47°34' W 122°21'0 0.0
2017-Dec-09 11:00N 47°34' W 122°21'0 0.0
2017-Dec-09 10:30N 47°34' W 122°21'0 0.0
2017-Dec-09 10:00N 47°34' W 122°21'0 0.0
2017-Dec-09 09:30N 47°34' W 122°21'0 0.0
2017-Dec-09 09:00N 47°34' W 122°21'0 0.0
2017-Dec-09 08:30N 47°34' W 122°21'0 0.0
2017-Dec-09 08:00N 47°34' W 122°21'0 0.0
2017-Dec-09 07:30N 47°34' W 122°21'0 0.0
2017-Dec-09 07:00N 47°34' W 122°21'0 0.0
2017-Dec-09 06:30N 47°34' W 122°21'0 0.0
2017-Dec-09 06:00N 47°34' W 122°21'0 0.0
2017-Dec-09 05:30N 47°34' W 122°21'0 0.0
2017-Dec-09 05:00N 47°34' W 122°21'0 0.0
2017-Dec-09 04:30N 47°34' W 122°21'0 0.0
2017-Dec-09 04:00N 47°34' W 122°21'0 0.0
2017-Dec-09 03:30N 47°34' W 122°21'0 0.0
2017-Dec-09 03:00N 47°34' W 122°21'0 0.0
2017-Dec-09 02:30N 47°34' W 122°21'0 0.0
2017-Dec-09 02:00N 47°34' W 122°21'0 0.0
2017-Dec-09 01:30N 47°34' W 122°21'0 0.0
2017-Dec-09 01:00N 47°34' W 122°21'0 0.0
2017-Dec-09 00:30N 47°34' W 122°21'0 0.0
2017-Dec-09 00:00N 47°34' W 122°21'0 0.0
2017-Dec-08 23:30N 47°34' W 122°21'0 0.0
2017-Dec-08 23:00N 47°34' W 122°21'0 0.0
2017-Dec-08 22:30N 47°34' W 122°21'0 0.0
2017-Dec-08 22:00N 47°34' W 122°21'0 0.0
2017-Dec-08 21:30N 47°34' W 122°21'0 0.0
2017-Dec-08 21:00N 47°34' W 122°21'0 0.0
2017-Dec-08 20:30N 47°34' W 122°21'0 0.0
2017-Dec-08 20:00N 47°34' W 122°21'0 0.0
2017-Dec-08 19:30N 47°34' W 122°21'0 0.0
2017-Dec-08 19:00N 47°34' W 122°21'0 0.0
2017-Dec-08 18:30N 47°34' W 122°21'0 0.0
2017-Dec-08 18:00N 47°34' W 122°21'0 0.0
2017-Dec-08 17:30N 47°34' W 122°21'0 0.0
2017-Dec-08 17:00N 47°34' W 122°21'0 0.0
2017-Dec-08 16:30N 47°34' W 122°21'0 0.0
2017-Dec-08 16:00N 47°34' W 122°21'0 0.0
2017-Dec-08 15:30N 47°34' W 122°21'0 0.0
2017-Dec-08 15:00N 47°34' W 122°21'0 0.0
2017-Dec-08 14:30N 47°34' W 122°21'0 0.0
2017-Dec-08 14:01N 47°34' W 122°21'0 0.0
2017-Dec-08 13:30N 47°34' W 122°21'0 0.0
2017-Dec-08 13:00N 47°34' W 122°21'0 0.0
2017-Dec-08 12:30N 47°34' W 122°21'0 0.0
2017-Dec-08 12:00N 47°34' W 122°21'0 0.0
2017-Dec-08 11:30N 47°34' W 122°21'0 0.0
2017-Dec-08 11:00N 47°34' W 122°21'0 0.0
2017-Dec-08 10:30N 47°34' W 122°21'0 0.0
2017-Dec-08 10:00N 47°34' W 122°21'0 0.0
2017-Dec-08 09:30N 47°34' W 122°21'0 0.0
2017-Dec-08 09:00N 47°34' W 122°21'0 0.0
2017-Dec-08 08:30N 47°34' W 122°21'0 0.0
2017-Dec-08 08:00N 47°34' W 122°21'0 0.0
2017-Dec-08 07:30N 47°34' W 122°21'0 0.0
2017-Dec-08 07:00N 47°34' W 122°21'0 0.0
2017-Dec-08 06:30N 47°34' W 122°21'0 0.0
2017-Dec-08 06:00N 47°34' W 122°21'0 0.0
2017-Dec-08 05:30N 47°34' W 122°21'0 0.0
2017-Dec-08 05:00N 47°34' W 122°21'0 0.0
2017-Dec-08 04:30N 47°34' W 122°21'0 0.0
2017-Dec-08 04:00N 47°34' W 122°21'0 0.0
2017-Dec-08 03:30N 47°34' W 122°21'0 0.0
2017-Dec-08 03:00N 47°34' W 122°21'0 0.0
2017-Dec-08 02:30N 47°34' W 122°21'0 0.0
2017-Dec-08 02:00N 47°34' W 122°21'0 0.0
2017-Dec-08 01:30N 47°34' W 122°21'0 0.0
2017-Dec-08 01:00N 47°34' W 122°21'0 0.0
2017-Dec-08 00:30N 47°34' W 122°21'0 0.0
2017-Dec-08 00:00N 47°34' W 122°21'0 0.0
2017-Dec-07 23:30N 47°34' W 122°21'0 0.0
2017-Dec-07 23:00N 47°34' W 122°21'0 0.0
2017-Dec-07 22:30N 47°34' W 122°21'0 0.0
2017-Dec-07 22:00N 47°34' W 122°21'0 0.0
2017-Dec-07 21:30N 47°34' W 122°21'0 0.0
2017-Dec-07 21:00N 47°34' W 122°21'0 0.0
2017-Dec-07 20:30N 47°34' W 122°21'0 0.0
2017-Dec-07 20:00N 47°34' W 122°21'0 0.0
2017-Dec-07 19:30N 47°34' W 122°21'0 0.0
2017-Dec-07 19:00N 47°34' W 122°21'0 0.0
2017-Dec-07 18:30N 47°34' W 122°21'0 0.0
2017-Dec-07 18:00N 47°34' W 122°21'0 0.0
2017-Dec-07 17:30N 47°34' W 122°21'0 0.0
2017-Dec-07 17:00N 47°34' W 122°21'0 0.0
2017-Dec-07 16:30N 47°34' W 122°21'0 0.0
2017-Dec-07 16:00N 47°34' W 122°21'0 0.0
2017-Dec-07 15:30N 47°34' W 122°21'0 0.0
2017-Dec-07 15:00N 47°34' W 122°21'0 0.0
2017-Dec-07 14:30N 47°34' W 122°21'0 0.0
2017-Dec-07 14:00N 47°34' W 122°21'0 0.0
2017-Dec-07 13:30N 47°34' W 122°21'0 0.0
2017-Dec-07 13:00N 47°34' W 122°21'0 0.0
2017-Dec-07 12:31N 47°34' W 122°21'0 0.0
2017-Dec-07 12:00N 47°34' W 122°21'0 0.0
2017-Dec-07 11:30N 47°34' W 122°21'0 0.0
2017-Dec-07 11:00N 47°34' W 122°21'0 0.0
2017-Dec-07 10:30N 47°34' W 122°21'0 0.0
2017-Dec-07 10:00N 47°34' W 122°21'0 0.0
2017-Dec-07 09:30N 47°34' W 122°21'0 0.0
2017-Dec-07 09:01N 47°34' W 122°21'0 0.0
2017-Dec-07 08:30N 47°34' W 122°21'0 0.0
2017-Dec-07 08:00N 47°34' W 122°21'0 0.0
2017-Dec-07 07:30N 47°34' W 122°21'0 0.0
2017-Dec-07 07:00N 47°34' W 122°21'0 0.0
2017-Dec-07 06:30N 47°34' W 122°21'0 0.0
2017-Dec-07 06:00N 47°34' W 122°21'0 0.0
2017-Dec-07 05:30N 47°34' W 122°21'0 0.0
2017-Dec-07 05:00N 47°34' W 122°21'0 0.0
2017-Dec-07 04:30N 47°34' W 122°21'0 0.0
2017-Dec-07 04:00N 47°34' W 122°21'0 0.0
2017-Dec-07 03:30N 47°34' W 122°21'0 0.0
2017-Dec-07 03:00N 47°34' W 122°21'0 0.0
2017-Dec-07 02:30N 47°34' W 122°21'0 0.0
2017-Dec-07 02:00N 47°34' W 122°21'0 0.0
2017-Dec-07 01:30N 47°34' W 122°21'0 0.0
2017-Dec-07 01:00N 47°34' W 122°21'0 0.0
2017-Dec-07 00:30N 47°34' W 122°21'0 0.0
2017-Dec-07 00:00N 47°34' W 122°21'0 0.0
2017-Dec-06 23:30N 47°34' W 122°21'0 0.0
2017-Dec-06 23:00N 47°34' W 122°21'0 0.0
2017-Dec-06 22:30N 47°34' W 122°21'0 0.0
2017-Dec-06 22:00N 47°34' W 122°21'0 0.0
2017-Dec-06 21:30N 47°34' W 122°21'0 0.0
2017-Dec-06 21:01N 47°34' W 122°21'  

Dump ship's entire track history